createdAt,value
2023-05-19T00:00:51.113Z,12.62
2023-05-19T00:01:50.666Z,12.58
2023-05-19T00:02:50.708Z,12.46
2023-05-19T00:03:50.642Z,12.46
2023-05-19T00:04:50.648Z,12.48
2023-05-19T00:05:50.708Z,12.47
2023-05-19T00:06:50.623Z,12.58
2023-05-19T00:07:50.617Z,12.53
2023-05-19T00:08:50.613Z,12.47
2023-05-19T00:09:50.617Z,12.51
2023-05-19T00:10:50.680Z,12.43
2023-05-19T00:11:50.590Z,12.44
2023-05-19T00:12:51.850Z,12.41
2023-05-19T00:13:50.579Z,12.35
2023-05-19T00:14:50.573Z,12.25
2023-05-19T00:15:50.587Z,12.23
2023-05-19T00:16:50.568Z,12.26
2023-05-19T00:17:50.617Z,12.18
2023-05-19T00:18:50.586Z,12.08
2023-05-19T00:19:50.542Z,12.17
2023-05-19T00:20:50.533Z,12.03
2023-05-19T00:21:50.527Z,12.05
2023-05-19T00:22:50.512Z,12.03
2023-05-19T00:23:50.513Z,11.95
2023-05-19T00:24:50.503Z,12.00
2023-05-19T00:25:50.497Z,11.97
2023-05-19T00:26:50.491Z,12.03
2023-05-19T00:27:50.479Z,12.08
2023-05-19T00:28:50.497Z,12.04
2023-05-19T00:29:50.480Z,12.08
2023-05-19T00:30:50.463Z,12.10
2023-05-19T00:31:50.498Z,12.08
2023-05-19T00:32:50.494Z,12.00
2023-05-19T00:33:50.449Z,12.13
2023-05-19T00:34:50.439Z,12.03
2023-05-19T00:35:50.428Z,12.07
2023-05-19T00:36:50.421Z,12.05
2023-05-19T00:37:50.418Z,12.15
2023-05-19T00:38:50.413Z,12.11
2023-05-19T00:39:50.403Z,12.04
2023-05-19T00:40:50.394Z,12.10
2023-05-19T00:41:50.391Z,12.00
2023-05-19T00:42:50.387Z,12.10
2023-05-19T00:43:50.376Z,12.05
2023-05-19T00:44:50.402Z,12.07
2023-05-19T00:45:50.371Z,12.04
2023-05-19T00:46:50.417Z,12.00
2023-05-19T00:47:50.381Z,12.08
2023-05-19T00:48:50.354Z,12.05
2023-05-19T00:49:50.374Z,12.03
2023-05-19T00:50:50.333Z,11.95
2023-05-19T00:51:50.325Z,11.97
2023-05-19T00:52:50.320Z,11.84
2023-05-19T00:53:50.322Z,11.51
2023-05-19T00:54:50.298Z,11.28
2023-05-19T00:55:50.296Z,11.19
2023-05-19T00:56:50.294Z,11.19
2023-05-19T00:57:50.285Z,11.19
2023-05-19T00:58:50.280Z,11.28
2023-05-19T00:59:50.270Z,11.25
2023-05-19T01:00:50.314Z,11.40
2023-05-19T01:01:50.260Z,11.46
2023-05-19T01:02:50.341Z,11.30
2023-05-19T01:03:50.416Z,11.34
2023-05-19T01:04:50.240Z,11.31
2023-05-19T01:05:50.241Z,11.28
2023-05-19T01:06:50.228Z,11.28
2023-05-19T01:07:50.219Z,11.40
2023-05-19T01:08:50.211Z,11.51
2023-05-19T01:09:50.209Z,11.52
2023-05-19T01:10:50.198Z,11.49
2023-05-19T01:11:50.195Z,11.64
2023-05-19T01:12:50.189Z,11.62
2023-05-19T01:13:50.182Z,11.71
2023-05-19T01:14:50.182Z,11.71
2023-05-19T01:15:50.172Z,11.73
2023-05-19T01:16:50.285Z,11.71
2023-05-19T01:17:50.190Z,11.70
2023-05-19T01:18:50.198Z,11.69
2023-05-19T01:19:50.141Z,11.54
2023-05-19T01:20:50.139Z,11.55
2023-05-19T01:21:50.142Z,11.52
2023-05-19T01:22:50.119Z,11.46
2023-05-19T01:23:50.112Z,11.46
2023-05-19T01:24:50.104Z,11.52
2023-05-19T01:25:50.099Z,11.59
2023-05-19T01:26:50.093Z,11.33
2023-05-19T01:27:50.095Z,11.30
2023-05-19T01:28:50.075Z,11.22
2023-05-19T01:29:50.068Z,11.12
2023-05-19T01:30:50.109Z,11.23
2023-05-19T01:31:50.076Z,11.13
2023-05-19T01:32:50.120Z,11.16
2023-05-19T01:33:50.050Z,11.18
2023-05-19T01:34:50.035Z,11.15
2023-05-19T01:35:50.019Z,11.20
2023-05-19T01:36:50.020Z,11.11
2023-05-19T01:37:50.016Z,11.19
2023-05-19T01:38:50.000Z,11.05
2023-05-19T01:39:50.010Z,11.05
2023-05-19T01:40:50.004Z,11.09
2023-05-19T01:41:49.994Z,11.05
2023-05-19T01:42:49.981Z,11.04
2023-05-19T01:43:49.977Z,11.00
2023-05-19T01:44:49.967Z,10.97
2023-05-19T01:45:49.997Z,10.86
2023-05-19T01:46:49.969Z,10.85
2023-05-19T01:47:49.996Z,10.91
2023-05-19T01:48:49.938Z,10.90
2023-05-19T01:49:49.931Z,10.86
2023-05-19T01:50:49.930Z,10.78
2023-05-19T01:51:49.920Z,10.76
2023-05-19T01:52:49.922Z,10.78
2023-05-19T01:53:49.902Z,10.72
2023-05-19T01:54:49.898Z,10.73
2023-05-19T01:55:49.908Z,10.64
2023-05-19T01:56:49.885Z,10.70
2023-05-19T01:57:49.880Z,10.62
2023-05-19T01:58:49.859Z,10.62
2023-05-19T01:59:49.859Z,10.72
2023-05-19T02:00:49.852Z,10.70
2023-05-19T02:01:49.840Z,10.61
2023-05-19T02:02:49.843Z,10.60
2023-05-19T02:03:49.850Z,10.46
2023-05-19T02:04:49.892Z,10.58
2023-05-19T02:05:49.809Z,10.41
2023-05-19T02:06:49.805Z,10.27
2023-05-19T02:07:49.805Z,10.26
2023-05-19T02:08:49.802Z,10.20
2023-05-19T02:09:49.797Z,10.18
2023-05-19T02:11:10.785Z,10.18
2023-05-19T02:11:49.781Z,10.27
2023-05-19T02:12:49.768Z,10.35
2023-05-19T02:13:49.756Z,10.38
2023-05-19T02:14:49.771Z,10.42
2023-05-19T02:15:49.766Z,10.52
2023-05-19T02:16:49.735Z,10.57
2023-05-19T02:17:49.755Z,10.62
2023-05-19T02:18:49.717Z,10.62
2023-05-19T02:19:49.701Z,10.64
2023-05-19T02:20:49.693Z,10.64
2023-05-19T02:21:49.693Z,10.60
2023-05-19T02:22:49.678Z,10.54
2023-05-19T02:23:49.672Z,10.48
2023-05-19T02:24:49.673Z,10.46
2023-05-19T02:25:49.657Z,10.41
2023-05-19T02:26:49.641Z,10.27
2023-05-19T02:27:49.642Z,10.31
2023-05-19T02:28:49.660Z,10.42
2023-05-19T02:29:49.623Z,10.35
2023-05-19T02:30:49.624Z,10.34
2023-05-19T02:31:49.655Z,10.31
2023-05-19T02:32:49.635Z,10.31
2023-05-19T02:33:49.594Z,10.35
2023-05-19T02:34:49.597Z,10.31
2023-05-19T02:35:49.584Z,10.35
2023-05-19T02:36:49.579Z,10.42
2023-05-19T02:37:49.558Z,10.34
2023-05-19T02:38:49.571Z,10.30
2023-05-19T02:39:49.546Z,10.39
2023-05-19T02:40:49.552Z,10.36
2023-05-19T02:41:49.542Z,10.43
2023-05-19T02:42:49.527Z,10.38
2023-05-19T02:43:49.521Z,10.10
2023-05-19T02:44:49.512Z,9.81
2023-05-19T02:45:49.511Z,9.78
2023-05-19T02:46:49.583Z,9.85
2023-05-19T02:47:49.510Z,9.94
2023-05-19T02:48:49.500Z,9.99
2023-05-19T02:49:49.500Z,9.98
2023-05-19T02:50:49.459Z,9.90
2023-05-19T02:51:49.453Z,9.88
2023-05-19T02:52:49.445Z,9.88
2023-05-19T02:53:49.436Z,9.93
2023-05-19T02:54:49.434Z,9.94
2023-05-19T02:55:49.420Z,9.99
2023-05-19T02:56:49.413Z,9.94
2023-05-19T02:57:49.421Z,9.80
2023-05-19T02:58:49.404Z,9.84
2023-05-19T02:59:49.392Z,9.85
2023-05-19T03:00:49.401Z,9.78
2023-05-19T03:01:49.430Z,9.84
2023-05-19T03:02:49.458Z,9.87
2023-05-19T03:03:49.438Z,9.91
2023-05-19T03:04:49.357Z,9.84
2023-05-19T03:05:49.340Z,9.80
2023-05-19T03:06:49.334Z,9.78
2023-05-19T03:07:49.326Z,9.85
2023-05-19T03:08:49.318Z,9.84
2023-05-19T03:09:49.310Z,9.85
2023-05-19T03:10:49.300Z,9.73
2023-05-19T03:11:49.297Z,9.84
2023-05-19T03:12:49.297Z,9.81
2023-05-19T03:13:49.281Z,9.85
2023-05-19T03:14:49.293Z,9.84
2023-05-19T03:15:49.288Z,9.83
2023-05-19T03:16:49.330Z,9.84
2023-05-19T03:17:49.401Z,9.83
2023-05-19T03:18:49.284Z,9.85
2023-05-19T03:19:49.229Z,9.94
2023-05-19T03:20:49.222Z,9.85
2023-05-19T03:21:49.215Z,9.81
2023-05-19T03:22:49.221Z,9.81
2023-05-19T03:23:49.195Z,9.91
2023-05-19T03:24:49.195Z,9.83
2023-05-19T03:25:49.183Z,9.88
2023-05-19T03:26:49.182Z,9.85
2023-05-19T03:27:49.177Z,9.81
2023-05-19T03:28:49.168Z,9.75
2023-05-19T03:29:49.162Z,9.72
2023-05-19T03:30:49.141Z,9.75
2023-05-19T03:31:49.142Z,9.70
2023-05-19T03:32:49.196Z,9.66
2023-05-19T03:33:49.137Z,9.72
2023-05-19T03:34:49.117Z,9.59
2023-05-19T03:35:49.105Z,9.60
2023-05-19T03:36:49.102Z,9.51
2023-05-19T03:37:49.094Z,9.52
2023-05-19T03:38:49.092Z,9.44
2023-05-19T03:39:49.076Z,9.34
2023-05-19T03:40:49.064Z,9.44
2023-05-19T03:41:49.072Z,9.29
2023-05-19T03:42:49.058Z,9.14
2023-05-19T03:43:49.040Z,9.12
2023-05-19T03:44:49.034Z,9.14
2023-05-19T03:45:49.046Z,9.12
2023-05-19T03:46:49.031Z,8.95
2023-05-19T03:47:49.044Z,8.99
2023-05-19T03:48:49.004Z,8.99
2023-05-19T03:49:48.989Z,9.01
2023-05-19T03:50:48.978Z,9.12
2023-05-19T03:51:48.980Z,9.27
2023-05-19T03:52:48.974Z,9.33
2023-05-19T03:53:48.958Z,9.41
2023-05-19T03:54:48.955Z,9.51
2023-05-19T03:55:49.034Z,9.54
2023-05-19T03:56:48.928Z,9.51
2023-05-19T03:57:48.920Z,9.48
2023-05-19T03:58:48.909Z,9.52
2023-05-19T03:59:48.908Z,9.45
2023-05-19T04:00:48.899Z,9.48
2023-05-19T04:01:48.899Z,9.42
2023-05-19T04:02:48.974Z,9.52
2023-05-19T04:03:48.868Z,9.52
2023-05-19T04:04:48.925Z,9.54
2023-05-19T04:05:48.845Z,9.52
2023-05-19T04:06:48.852Z,9.57
2023-05-19T04:07:48.847Z,9.51
2023-05-19T04:08:48.835Z,9.27
2023-05-19T04:09:48.824Z,8.99
2023-05-19T04:10:48.815Z,8.83
2023-05-19T04:11:48.806Z,8.75
2023-05-19T04:12:48.803Z,8.81
2023-05-19T04:13:48.801Z,8.83
2023-05-19T04:14:48.769Z,8.96
2023-05-19T04:15:48.804Z,9.08
2023-05-19T04:16:48.769Z,9.12
2023-05-19T04:17:48.825Z,9.22
2023-05-19T04:18:48.781Z,9.12
2023-05-19T04:19:48.738Z,9.22
2023-05-19T04:20:48.720Z,9.24
2023-05-19T04:21:48.722Z,9.26
2023-05-19T04:22:48.714Z,9.29
2023-05-19T04:23:48.720Z,9.40
2023-05-19T04:24:48.694Z,9.42
2023-05-19T04:25:48.717Z,9.37
2023-05-19T04:26:48.677Z,9.41
2023-05-19T04:27:48.673Z,9.40
2023-05-19T04:28:48.660Z,9.26
2023-05-19T04:29:48.660Z,9.11
2023-05-19T04:30:48.736Z,9.14
2023-05-19T04:31:48.633Z,9.19
2023-05-19T04:32:48.652Z,9.26
2023-05-19T04:33:48.624Z,9.29
2023-05-19T04:34:48.611Z,9.40
2023-05-19T04:35:48.630Z,9.41
2023-05-19T04:36:49.804Z,9.54
2023-05-19T04:37:48.597Z,9.50
2023-05-19T04:38:48.581Z,9.48
2023-05-19T04:39:48.568Z,9.52
2023-05-19T04:40:48.564Z,9.52
2023-05-19T04:41:48.551Z,9.55
2023-05-19T04:42:48.542Z,9.54
2023-05-19T04:43:48.536Z,9.48
2023-05-19T04:44:48.530Z,9.42
2023-05-19T04:45:48.513Z,9.48
2023-05-19T04:46:48.520Z,9.52
2023-05-19T04:47:48.586Z,9.51
2023-05-19T04:48:48.496Z,9.54
2023-05-19T04:49:48.516Z,9.57
2023-05-19T04:50:48.473Z,9.54
2023-05-19T04:51:48.478Z,9.54
2023-05-19T04:52:48.467Z,9.59
2023-05-19T04:53:48.453Z,9.62
2023-05-19T04:54:48.459Z,9.59
2023-05-19T04:55:48.433Z,9.62
2023-05-19T04:56:48.442Z,9.67
2023-05-19T04:57:48.415Z,9.70
2023-05-19T04:58:48.402Z,9.72
2023-05-19T04:59:48.402Z,9.72
2023-05-19T05:00:48.400Z,9.73
2023-05-19T05:01:48.432Z,9.66
2023-05-19T05:02:48.516Z,9.67
2023-05-19T05:03:48.415Z,9.50
2023-05-19T05:04:48.373Z,9.62
2023-05-19T05:05:48.350Z,9.60
2023-05-19T05:06:48.341Z,9.67
2023-05-19T05:07:48.330Z,9.70
2023-05-19T05:08:48.326Z,9.73
2023-05-19T05:09:48.325Z,9.81
2023-05-19T05:10:48.306Z,9.85
2023-05-19T05:11:48.304Z,9.83
2023-05-19T05:12:48.292Z,9.90
2023-05-19T05:13:48.284Z,9.98
2023-05-19T05:14:48.265Z,10.02
2023-05-19T05:15:48.272Z,9.99
2023-05-19T05:16:48.269Z,10.06
2023-05-19T05:17:48.298Z,10.02
2023-05-19T05:18:48.285Z,10.12
2023-05-19T05:19:48.245Z,10.05
2023-05-19T05:20:48.223Z,10.09
2023-05-19T05:21:48.218Z,10.08
2023-05-19T05:22:48.213Z,10.05
2023-05-19T05:23:48.205Z,10.10
2023-05-19T05:24:48.195Z,10.05
2023-05-19T05:25:48.187Z,10.08
2023-05-19T05:26:48.189Z,10.05
2023-05-19T05:27:48.180Z,10.09
2023-05-19T05:28:48.165Z,10.05
2023-05-19T05:29:48.173Z,10.01
2023-05-19T05:30:48.149Z,10.03
2023-05-19T05:31:48.147Z,10.06
2023-05-19T05:32:48.216Z,10.18
2023-05-19T05:33:48.173Z,10.16
2023-05-19T05:34:48.119Z,10.23
2023-05-19T05:35:48.114Z,10.24
2023-05-19T05:36:48.098Z,10.34
2023-05-19T05:37:48.092Z,10.23
2023-05-19T05:38:48.079Z,10.28
2023-05-19T05:39:48.081Z,10.05
2023-05-19T05:40:48.070Z,9.94
2023-05-19T05:41:48.058Z,9.91
2023-05-19T05:42:48.057Z,9.91
2023-05-19T05:43:48.050Z,9.90
2023-05-19T05:44:48.039Z,9.83
2023-05-19T05:45:48.060Z,9.73
2023-05-19T05:46:48.025Z,9.69
2023-05-19T05:47:48.038Z,9.72
2023-05-19T05:48:48.004Z,9.65
2023-05-19T05:49:48.002Z,9.66
2023-05-19T05:50:48.002Z,9.67
2023-05-19T05:52:01.535Z,9.63
2023-05-19T05:52:47.977Z,9.59
2023-05-19T05:53:47.979Z,9.55
2023-05-19T05:54:47.971Z,9.65
2023-05-19T05:55:47.951Z,9.59
2023-05-19T05:56:47.946Z,9.50
2023-05-19T05:57:47.939Z,9.52
2023-05-19T05:58:47.939Z,9.55
2023-05-19T05:59:47.926Z,9.54
2023-05-19T06:00:47.922Z,9.51
2023-05-19T06:01:47.920Z,9.50
2023-05-19T06:02:47.937Z,9.57
2023-05-19T06:03:48.018Z,9.57
2023-05-19T06:04:47.882Z,9.59
2023-05-19T06:05:47.925Z,9.60
2023-05-19T06:06:47.901Z,9.52
2023-05-19T06:07:47.915Z,9.55
2023-05-19T06:08:47.858Z,9.54
2023-05-19T06:09:47.853Z,9.55
2023-05-19T06:10:47.862Z,9.59
2023-05-19T06:11:47.863Z,9.63
2023-05-19T06:12:47.875Z,9.57
2023-05-19T06:13:47.822Z,9.72
2023-05-19T06:14:47.837Z,9.73
2023-05-19T06:15:47.818Z,9.67
2023-05-19T06:16:47.799Z,9.78
2023-05-19T06:17:47.834Z,9.85
2023-05-19T06:18:47.824Z,9.87
2023-05-19T06:19:47.787Z,9.80
2023-05-19T06:20:47.770Z,9.93
2023-05-19T06:21:47.767Z,9.93
2023-05-19T06:22:47.760Z,9.93
2023-05-19T06:23:47.750Z,10.01
2023-05-19T06:24:47.751Z,10.02
2023-05-19T06:25:47.735Z,10.16
2023-05-19T06:26:47.723Z,10.12
2023-05-19T06:27:47.730Z,10.10
2023-05-19T06:28:47.713Z,10.12
2023-05-19T06:29:47.703Z,10.21
2023-05-19T06:30:47.696Z,10.21
2023-05-19T06:31:48.329Z,10.26
2023-05-19T06:32:47.705Z,10.27
2023-05-19T06:33:47.695Z,10.30
2023-05-19T06:34:47.671Z,10.38
2023-05-19T06:35:47.681Z,10.34
2023-05-19T06:36:47.653Z,10.46
2023-05-19T06:37:47.644Z,10.46
2023-05-19T06:38:47.637Z,10.57
2023-05-19T06:39:47.630Z,10.57
2023-05-19T06:40:47.650Z,10.57
2023-05-19T06:41:47.622Z,10.65
2023-05-19T06:42:47.608Z,10.67
2023-05-19T06:43:47.603Z,10.70
2023-05-19T06:44:47.590Z,10.78
2023-05-19T06:45:47.599Z,10.83
2023-05-19T06:46:47.613Z,10.86
2023-05-19T06:47:47.619Z,10.87
2023-05-19T06:48:47.561Z,10.90
2023-05-19T06:49:47.560Z,10.98
2023-05-19T06:50:47.555Z,11.08
2023-05-19T06:51:47.546Z,11.15
2023-05-19T06:52:47.563Z,11.12
2023-05-19T06:53:47.534Z,11.16
2023-05-19T06:54:47.535Z,11.15
2023-05-19T06:55:58.576Z,11.20
2023-05-19T06:56:47.515Z,11.30
2023-05-19T06:57:47.515Z,11.28
2023-05-19T06:58:47.496Z,11.25
2023-05-19T06:59:47.488Z,11.46
2023-05-19T07:00:47.471Z,11.49
2023-05-19T07:01:47.487Z,11.62
2023-05-19T07:02:47.593Z,11.66
2023-05-19T07:03:47.534Z,11.69
2023-05-19T07:04:47.451Z,11.66
2023-05-19T07:05:47.450Z,11.74
2023-05-19T07:06:47.444Z,11.84
2023-05-19T07:07:47.440Z,11.85
2023-05-19T07:08:47.426Z,11.95
2023-05-19T07:09:47.427Z,11.97
2023-05-19T07:10:47.435Z,12.07
2023-05-19T07:11:47.466Z,12.08
2023-05-19T07:12:48.270Z,12.08
2023-05-19T07:13:47.397Z,12.14
2023-05-19T07:14:47.380Z,12.28
2023-05-19T07:15:47.391Z,12.22
2023-05-19T07:16:47.476Z,12.43
2023-05-19T07:17:47.394Z,12.41
2023-05-19T07:18:47.376Z,12.46
2023-05-19T07:19:47.350Z,12.47
2023-05-19T07:20:47.346Z,12.47
2023-05-19T07:21:47.342Z,12.59
2023-05-19T07:22:47.327Z,12.43
2023-05-19T07:23:47.364Z,12.53
2023-05-19T07:24:47.329Z,12.58
2023-05-19T07:25:47.316Z,12.66
2023-05-19T07:26:47.304Z,12.66
2023-05-19T07:27:47.304Z,12.66
2023-05-19T07:28:47.304Z,12.79
2023-05-19T07:29:47.297Z,12.79
2023-05-19T07:30:47.286Z,12.84
2023-05-19T07:31:47.303Z,12.95
2023-05-19T07:32:47.371Z,12.96
2023-05-19T07:33:47.262Z,13.13
2023-05-19T07:34:47.267Z,13.09
2023-05-19T07:35:47.262Z,13.17
2023-05-19T07:36:47.250Z,13.27
2023-05-19T07:37:47.246Z,13.36
2023-05-19T07:38:47.294Z,13.39
2023-05-19T07:39:47.224Z,13.43
2023-05-19T07:40:47.216Z,13.57
2023-05-19T07:41:47.212Z,13.57
2023-05-19T07:42:47.209Z,13.57
2023-05-19T07:43:47.193Z,13.61
2023-05-19T07:44:47.195Z,13.65
2023-05-19T07:45:47.238Z,13.71
2023-05-19T07:46:47.202Z,13.71
2023-05-19T07:47:47.204Z,13.78
2023-05-19T07:48:47.176Z,13.73
2023-05-19T07:49:47.786Z,13.80
2023-05-19T07:50:47.156Z,13.90
2023-05-19T07:51:47.157Z,13.83
2023-05-19T07:52:47.146Z,13.91
2023-05-19T07:53:47.154Z,13.93
2023-05-19T07:54:47.136Z,14.01
2023-05-19T07:55:47.126Z,14.04
2023-05-19T07:56:47.152Z,14.12
2023-05-19T07:57:47.111Z,14.11
2023-05-19T07:58:47.114Z,14.15
2023-05-19T07:59:47.109Z,14.19
2023-05-19T08:00:47.099Z,14.19
2023-05-19T08:01:47.104Z,14.28
2023-05-19T08:02:47.193Z,14.31
2023-05-19T08:03:47.206Z,14.34
2023-05-19T08:04:47.148Z,14.36
2023-05-19T08:05:47.077Z,14.41
2023-05-19T08:06:47.062Z,14.49
2023-05-19T08:07:47.067Z,14.51
2023-05-19T08:08:47.055Z,14.52
2023-05-19T08:09:47.050Z,14.56
2023-05-19T08:10:47.034Z,14.61
2023-05-19T08:11:47.280Z,14.67
2023-05-19T08:12:47.028Z,14.61
2023-05-19T08:13:47.039Z,14.69
2023-05-19T08:14:47.011Z,14.71
2023-05-19T08:15:47.110Z,14.78
2023-05-19T08:16:47.005Z,14.70
2023-05-19T08:17:47.017Z,14.67
2023-05-19T08:18:47.059Z,14.74
2023-05-19T08:19:46.986Z,14.78
2023-05-19T08:20:47.002Z,14.87
2023-05-19T08:21:46.975Z,14.86
2023-05-19T08:22:46.985Z,14.92
2023-05-19T08:23:46.963Z,14.96
2023-05-19T08:24:46.967Z,15.08
2023-05-19T08:25:46.967Z,15.08
2023-05-19T08:26:46.964Z,15.12
2023-05-19T08:27:46.960Z,15.23
2023-05-19T08:28:46.952Z,15.23
2023-05-19T08:29:46.937Z,15.17
2023-05-19T08:30:46.929Z,15.32
2023-05-19T08:31:46.987Z,15.25
2023-05-19T08:32:46.961Z,15.35
2023-05-19T08:33:46.925Z,15.27
2023-05-19T08:34:46.914Z,15.30
2023-05-19T08:35:46.906Z,15.45
2023-05-19T08:36:46.902Z,15.48
2023-05-19T08:37:46.909Z,15.51
2023-05-19T08:38:46.896Z,15.54
2023-05-19T08:39:46.878Z,15.73
2023-05-19T08:40:46.896Z,15.72
2023-05-19T08:41:46.873Z,15.72
2023-05-19T08:42:46.867Z,15.83
2023-05-19T08:43:46.862Z,15.85
2023-05-19T08:44:46.876Z,15.98
2023-05-19T08:45:46.851Z,15.98
2023-05-19T08:46:46.886Z,16.00
2023-05-19T08:47:46.923Z,15.91
2023-05-19T08:48:46.840Z,16.00
2023-05-19T08:49:46.828Z,16.06
2023-05-19T08:50:46.822Z,16.09
2023-05-19T08:51:46.821Z,16.22
2023-05-19T08:52:50.157Z,16.47
2023-05-19T08:53:46.805Z,16.32
2023-05-19T08:54:46.804Z,16.42
2023-05-19T08:55:46.804Z,16.55
2023-05-19T08:56:46.812Z,16.70
2023-05-19T08:57:46.786Z,16.73
2023-05-19T08:58:46.790Z,16.80
2023-05-19T08:59:46.811Z,16.87
2023-05-19T09:00:46.822Z,16.94
2023-05-19T09:01:46.814Z,17.12
2023-05-19T09:02:55.447Z,17.13
2023-05-19T09:03:46.849Z,17.27
2023-05-19T09:04:46.825Z,17.34
2023-05-19T09:05:46.997Z,17.46
2023-05-19T09:06:46.755Z,17.53
2023-05-19T09:07:46.753Z,17.57
2023-05-19T09:08:46.739Z,17.57
2023-05-19T09:09:46.738Z,17.86
2023-05-19T09:10:46.732Z,17.86
2023-05-19T09:11:46.726Z,17.94
2023-05-19T09:12:46.730Z,18.03
2023-05-19T09:13:46.730Z,18.09
2023-05-19T09:14:46.733Z,18.12
2023-05-19T09:15:46.713Z,18.23
2023-05-19T09:16:46.859Z,18.27
2023-05-19T09:17:46.752Z,18.23
2023-05-19T09:18:46.766Z,18.18
2023-05-19T09:19:46.708Z,18.12
2023-05-19T09:20:46.706Z,18.11
2023-05-19T09:21:46.703Z,18.21
2023-05-19T09:22:46.700Z,18.38
2023-05-19T09:23:46.700Z,18.52
2023-05-19T09:24:46.694Z,18.63
2023-05-19T09:25:46.692Z,18.66
2023-05-19T09:26:46.696Z,18.71
2023-05-19T09:27:46.684Z,18.79
2023-05-19T09:28:46.683Z,18.70
2023-05-19T09:29:46.688Z,18.64
2023-05-19T09:30:46.677Z,18.58
2023-05-19T09:31:46.763Z,18.85
2023-05-19T09:32:47.399Z,18.98
2023-05-19T09:33:46.685Z,19.24
2023-05-19T09:34:46.666Z,19.31
2023-05-19T09:35:46.665Z,19.44
2023-05-19T09:36:46.675Z,19.63
2023-05-19T09:37:46.668Z,19.71
2023-05-19T09:38:46.667Z,19.78
2023-05-19T09:39:46.667Z,19.79
2023-05-19T09:40:46.666Z,19.78
2023-05-19T09:41:46.670Z,19.81
2023-05-19T09:42:46.662Z,19.74
2023-05-19T09:43:46.663Z,19.89
2023-05-19T09:44:46.658Z,19.94
2023-05-19T09:45:46.712Z,19.96
2023-05-19T09:46:46.660Z,19.90
2023-05-19T09:47:46.688Z,20.05
2023-05-19T09:48:46.662Z,20.11
2023-05-19T09:49:46.650Z,20.25
2023-05-19T09:50:46.661Z,20.39
2023-05-19T09:51:46.661Z,20.50
2023-05-19T09:52:46.653Z,20.53
2023-05-19T09:53:46.652Z,20.65
2023-05-19T09:54:46.645Z,20.82
2023-05-19T09:55:46.651Z,20.74
2023-05-19T09:56:46.657Z,20.75
2023-05-19T09:57:46.653Z,20.58
2023-05-19T09:58:46.652Z,20.75
2023-05-19T09:59:46.651Z,20.89
2023-05-19T10:00:46.657Z,21.01
2023-05-19T10:01:46.786Z,20.89
2023-05-19T10:02:46.678Z,21.00
2023-05-19T10:03:46.647Z,21.11
2023-05-19T10:04:46.716Z,21.11
2023-05-19T10:05:46.656Z,21.23
2023-05-19T10:06:46.650Z,21.23
2023-05-19T10:07:46.663Z,20.89
2023-05-19T10:08:46.667Z,21.00
2023-05-19T10:09:46.657Z,20.85
2023-05-19T10:10:46.654Z,20.90
2023-05-19T10:11:46.658Z,20.90
2023-05-19T10:12:46.657Z,20.63
2023-05-19T10:13:46.669Z,20.25
2023-05-19T10:14:46.661Z,20.26
2023-05-19T10:15:57.113Z,20.46
2023-05-19T10:16:46.685Z,20.55
2023-05-19T10:17:46.669Z,20.52
2023-05-19T10:18:46.681Z,20.64
2023-05-19T10:19:46.660Z,20.71
2023-05-19T10:20:46.657Z,20.58
2023-05-19T10:21:46.664Z,20.77
2023-05-19T10:22:46.659Z,20.63
2023-05-19T10:23:46.666Z,20.75
2023-05-19T10:24:46.666Z,21.07
2023-05-19T10:25:46.661Z,21.28
2023-05-19T10:26:46.667Z,21.44
2023-05-19T10:27:46.669Z,21.48
2023-05-19T10:28:46.665Z,21.65
2023-05-19T10:29:46.672Z,21.66
2023-05-19T10:30:46.664Z,22.01
2023-05-19T10:31:46.695Z,22.15
2023-05-19T10:32:46.736Z,22.13
2023-05-19T10:33:46.671Z,21.91
2023-05-19T10:34:46.673Z,21.82
2023-05-19T10:35:47.313Z,21.85
2023-05-19T10:36:46.671Z,22.04
2023-05-19T10:37:46.666Z,22.18
2023-05-19T10:38:46.674Z,22.44
2023-05-19T10:39:46.681Z,22.28
2023-05-19T10:40:46.681Z,22.15
2023-05-19T10:41:47.088Z,22.11
2023-05-19T10:42:46.680Z,22.11
2023-05-19T10:43:46.675Z,22.03
2023-05-19T10:44:46.691Z,21.94
2023-05-19T10:45:46.686Z,21.60
2023-05-19T10:46:46.705Z,21.05
2023-05-19T10:47:46.704Z,20.82
2023-05-19T10:48:46.712Z,20.77
2023-05-19T10:49:46.702Z,20.79
2023-05-19T10:50:46.691Z,21.01
2023-05-19T10:51:46.714Z,21.34
2023-05-19T10:52:46.704Z,21.58
2023-05-19T10:53:46.739Z,21.78
2023-05-19T10:54:46.695Z,22.03
2023-05-19T10:55:46.687Z,22.28
2023-05-19T10:56:46.713Z,22.30
2023-05-19T10:57:46.703Z,22.13
2023-05-19T10:58:46.718Z,22.12
2023-05-19T10:59:46.702Z,22.13
2023-05-19T11:00:46.696Z,22.30
2023-05-19T11:01:46.736Z,22.55
2023-05-19T11:02:46.727Z,22.73
2023-05-19T11:03:46.731Z,22.46
2023-05-19T11:04:48.877Z,22.51
2023-05-19T11:05:46.724Z,22.48
2023-05-19T11:06:46.718Z,22.30
2023-05-19T11:07:46.723Z,22.04
2023-05-19T11:08:46.717Z,21.63
2023-05-19T11:09:46.709Z,21.51
2023-05-19T11:10:46.732Z,21.47
2023-05-19T11:11:46.736Z,21.47
2023-05-19T11:12:46.741Z,21.56
2023-05-19T11:13:46.726Z,21.47
2023-05-19T11:14:46.722Z,21.53
2023-05-19T11:15:46.739Z,21.62
2023-05-19T11:16:46.762Z,21.71
2023-05-19T11:17:46.742Z,21.60
2023-05-19T11:18:46.768Z,21.73
2023-05-19T11:19:46.737Z,21.74
2023-05-19T11:20:46.782Z,21.82
2023-05-19T11:21:46.736Z,21.91
2023-05-19T11:22:46.744Z,21.81
2023-05-19T11:23:46.882Z,21.67
2023-05-19T11:24:46.745Z,21.48
2023-05-19T11:25:46.853Z,21.41
2023-05-19T11:26:46.735Z,21.34
2023-05-19T11:27:46.745Z,21.43
2023-05-19T11:28:46.748Z,21.43
2023-05-19T11:29:46.742Z,21.23
2023-05-19T11:30:46.740Z,21.41
2023-05-19T11:31:46.766Z,21.47
2023-05-19T11:32:46.771Z,21.60
2023-05-19T11:33:46.744Z,21.62
2023-05-19T11:34:46.747Z,21.62
2023-05-19T11:35:46.746Z,21.55
2023-05-19T11:36:46.745Z,21.67
2023-05-19T11:37:46.740Z,21.80
2023-05-19T11:38:46.730Z,22.04
2023-05-19T11:39:46.729Z,22.06
2023-05-19T11:40:46.732Z,22.07
2023-05-19T11:41:46.735Z,22.09
2023-05-19T11:42:46.726Z,21.93
2023-05-19T11:43:46.725Z,21.91
2023-05-19T11:44:46.746Z,21.80
2023-05-19T11:45:46.890Z,21.85
2023-05-19T11:46:46.784Z,21.91
2023-05-19T11:48:01.390Z,21.60
2023-05-19T11:48:46.833Z,21.59
2023-05-19T11:49:46.714Z,21.62
2023-05-19T11:50:46.739Z,21.77
2023-05-19T11:51:46.715Z,21.84
2023-05-19T11:52:46.710Z,21.91
2023-05-19T11:53:46.706Z,22.00
2023-05-19T11:54:46.710Z,21.91
2023-05-19T11:55:47.049Z,21.97
2023-05-19T11:56:46.713Z,21.94
2023-05-19T11:57:55.991Z,21.97
2023-05-19T11:58:46.706Z,22.00
2023-05-19T11:59:46.696Z,21.75
2023-05-19T12:00:46.732Z,21.78
2023-05-19T12:01:46.723Z,21.91
2023-05-19T12:02:46.861Z,21.90
2023-05-19T12:03:46.794Z,21.91
2023-05-19T12:04:46.793Z,21.85
2023-05-19T12:05:47.611Z,21.71
2023-05-19T12:06:46.727Z,21.65
2023-05-19T12:07:46.682Z,21.43
2023-05-19T12:08:46.697Z,21.38
2023-05-19T12:09:46.693Z,21.43
2023-05-19T12:10:46.683Z,21.58
2023-05-19T12:11:46.673Z,21.69
2023-05-19T12:12:46.691Z,21.75
2023-05-19T12:13:46.668Z,21.66
2023-05-19T12:14:46.664Z,21.59
2023-05-19T12:15:46.766Z,21.67
2023-05-19T12:16:46.792Z,21.73
2023-05-19T12:17:46.686Z,21.77
2023-05-19T12:18:46.720Z,21.81
2023-05-19T12:19:46.668Z,21.84
2023-05-19T12:20:46.673Z,21.91
2023-05-19T12:21:46.654Z,21.88
2023-05-19T12:22:46.654Z,22.01
2023-05-19T12:23:46.653Z,22.15
2023-05-19T12:24:46.659Z,22.06
2023-05-19T12:25:46.646Z,21.96
2023-05-19T12:26:46.645Z,21.98
2023-05-19T12:27:46.645Z,21.91
2023-05-19T12:28:46.634Z,22.06
2023-05-19T12:29:46.631Z,22.12
2023-05-19T12:30:46.632Z,22.01
2023-05-19T12:31:46.704Z,22.00
2023-05-19T12:32:46.649Z,21.91
2023-05-19T12:33:46.632Z,22.04
2023-05-19T12:34:46.623Z,22.07
2023-05-19T12:35:46.613Z,22.01
2023-05-19T12:36:46.619Z,21.94
2023-05-19T12:37:46.616Z,22.06
2023-05-19T12:38:46.613Z,22.13
2023-05-19T12:39:46.615Z,22.09
2023-05-19T12:40:46.610Z,21.96
2023-05-19T12:41:46.606Z,22.16
2023-05-19T12:42:46.605Z,22.19
2023-05-19T12:43:46.623Z,22.28
2023-05-19T12:44:46.606Z,22.28
2023-05-19T12:45:46.645Z,22.33
2023-05-19T12:46:46.598Z,22.40
2023-05-19T12:47:46.603Z,22.36
2023-05-19T12:48:46.595Z,22.30
2023-05-19T12:49:46.589Z,22.27
2023-05-19T12:50:46.586Z,22.34
2023-05-19T12:51:46.593Z,22.25
2023-05-19T12:52:46.581Z,21.97
2023-05-19T12:53:46.579Z,21.85
2023-05-19T12:54:46.608Z,21.91
2023-05-19T12:55:46.573Z,22.04
2023-05-19T12:56:46.579Z,22.19
2023-05-19T12:57:48.543Z,22.27
2023-05-19T12:58:46.567Z,22.37